Time;durP1;ratioP1;P1;durP2;ratioP2;P2;SDS_P1;SDS_P2;PMS_P1;PMS_P2;Temp;Humidity;BMP_temperature;BMP_pressure;BME280_temperature;BME280_humidity;BME280_pressure;Samples;Min_cycle;Max_cycle;Signal;HPM_P1;HPM_P2
2023/05/27 00:02:04;;;;;;;8.03;4.90;;;19.60;58.60;;;;;;5055846;28;20225;-79
2023/05/27 00:04:31;;;;;;;8.97;4.13;;;19.60;58.70;;;;;;5073933;28;20204;-77
2023/05/27 00:06:58;;;;;;;9.77;4.83;;;19.60;58.80;;;;;;5073385;28;20236;-76
2023/05/27 00:09:27;;;;;;;8.73;4.30;;;19.60;58.90;;;;;;5073310;28;20300;-79
2023/05/27 00:11:53;;;;;;;6.43;3.73;;;19.50;58.90;;;;;;5073127;28;20229;-77
2023/05/27 00:14:21;;;;;;;8.87;4.43;;;19.50;58.90;;;;;;5073340;28;20303;-78
2023/05/27 00:16:49;;;;;;;7.53;4.73;;;19.40;59.00;;;;;;5073182;28;20288;-77
2023/05/27 00:19:17;;;;;;;9.10;4.53;;;19.40;59.10;;;;;;5073418;28;20211;-77
2023/05/27 00:21:44;;;;;;;9.13;4.67;;;19.40;58.90;;;;;;5072768;28;20208;-78
2023/05/27 00:24:11;;;;;;;6.17;4.13;;;19.40;58.90;;;;;;5072511;28;20658;-77
2023/05/27 00:26:40;;;;;;;8.80;4.60;;;19.40;59.10;;;;;;5071807;28;20221;-78
2023/05/27 00:29:06;;;;;;;8.20;4.60;;;19.30;59.20;;;;;;5073748;28;20235;-77
2023/05/27 00:31:33;;;;;;;8.00;4.53;;;19.30;59.00;;;;;;5073227;28;20308;-77
2023/05/27 00:34:00;;;;;;;8.53;4.40;;;19.30;58.90;;;;;;5073136;28;20251;-78
2023/05/27 00:36:27;;;;;;;6.33;4.27;;;19.20;58.90;;;;;;5037983;28;20668;-79
2023/05/27 00:38:54;;;;;;;8.40;4.80;;;19.20;58.90;;;;;;5073004;28;20228;-77
2023/05/27 00:41:21;;;;;;;9.43;4.43;;;19.10;59.40;;;;;;5072935;28;20554;-78
2023/05/27 00:43:50;;;;;;;7.13;4.83;;;19.10;58.80;;;;;;5073117;28;20215;-78
2023/05/27 00:46:17;;;;;;;7.47;4.30;;;19.10;59.00;;;;;;5072823;28;20229;-77
2023/05/27 00:48:43;;;;;;;10.70;4.17;;;19.10;59.00;;;;;;5073094;28;20201;-77
2023/05/27 00:51:10;;;;;;;9.23;4.37;;;19.00;59.00;;;;;;5073248;28;20201;-75
2023/05/27 00:53:41;;;;;;;6.20;4.07;;;19.00;59.10;;;;;;5073369;28;20205;-78
2023/05/27 00:56:09;;;;;;;9.67;4.53;;;19.00;59.30;;;;;;5054678;28;20255;-77
2023/05/27 00:58:36;;;;;;;9.27;4.80;;;18.90;59.30;;;;;;5073115;28;20501;-77
2023/05/27 01:01:05;;;;;;;10.30;4.73;;;18.80;59.30;;;;;;5072674;28;20224;-77
2023/05/27 01:03:34;;;;;;;9.43;4.37;;;18.80;59.40;;;;;;5021537;28;20292;-78
2023/05/27 01:06:09;;;;;;;9.27;4.77;;;18.80;59.60;;;;;;5055412;28;20260;-78
2023/05/27 01:08:45;;;;;;;7.43;4.50;;;18.70;59.50;;;;;;5072930;28;20675;-78
2023/05/27 01:11:15;;;;;;;9.07;4.03;;;18.70;59.50;;;;;;5072703;28;20276;-78
2023/05/27 01:13:47;;;;;;;7.67;4.20;;;18.70;59.40;;;;;;5073080;28;20440;-78
2023/05/27 01:16:18;;;;;;;8.57;4.10;;;18.70;59.60;;;;;;5072708;28;20435;-78
2023/05/27 01:18:46;;;;;;;7.63;4.20;;;18.60;59.50;;;;;;5072878;28;20542;-79
2023/05/27 01:21:16;;;;;;;7.40;4.27;;;18.60;59.30;;;;;;5054648;28;20258;-78
2023/05/27 01:23:47;;;;;;;11.30;4.47;;;18.60;59.30;;;;;;5072859;28;20211;-78
2023/05/27 01:26:14;;;;;;;9.47;3.73;;;18.60;59.40;;;;;;5072531;28;20482;-79
2023/05/27 01:28:42;;;;;;;7.20;3.77;;;18.60;59.30;;;;;;5072501;28;20239;-78
2023/05/27 01:31:14;;;;;;;10.20;4.33;;;18.60;59.20;;;;;;5072496;28;20205;-78
2023/05/27 01:33:46;;;;;;;10.60;3.77;;;18.50;59.70;;;;;;5074079;28;20565;-76
2023/05/27 01:36:17;;;;;;;9.63;4.47;;;18.50;60.00;;;;;;5076489;28;20430;-78
2023/05/27 01:38:47;;;;;;;8.40;4.30;;;18.50;59.40;;;;;;5076305;28;20264;-77
2023/05/27 01:41:15;;;;;;;7.77;3.97;;;18.40;59.80;;;;;;5057928;28;20215;-77
2023/05/27 01:43:43;;;;;;;7.93;4.23;;;18.40;59.70;;;;;;5075948;28;20821;-79
2023/05/27 01:46:10;;;;;;;7.57;3.70;;;18.30;59.20;;;;;;5058045;28;20493;-78
2023/05/27 01:48:37;;;;;;;9.13;4.60;;;18.30;59.10;;;;;;5076074;28;20552;-79
2023/05/27 01:51:04;;;;;;;9.07;3.93;;;18.30;58.90;;;;;;5076076;28;20835;-77
2023/05/27 01:53:31;;;;;;;7.50;4.07;;;18.30;58.90;;;;;;5076247;28;20200;-78
2023/05/27 01:55:59;;;;;;;9.60;3.70;;;18.20;59.10;;;;;;5058012;28;20440;-78
2023/05/27 01:58:26;;;;;;;9.03;3.70;;;18.20;59.10;;;;;;5075585;28;20455;-78
2023/05/27 02:00:53;;;;;;;7.93;3.97;;;18.20;59.20;;;;;;5075764;28;20225;-76
2023/05/27 02:03:20;;;;;;;9.53;4.37;;;18.20;59.20;;;;;;5076043;28;20219;-76
2023/05/27 02:05:47;;;;;;;9.57;3.53;;;18.20;59.10;;;;;;5075961;28;20583;-77
2023/05/27 02:08:14;;;;;;;6.73;3.47;;;18.20;59.00;;;;;;5075418;28;20205;-80
2023/05/27 02:10:40;;;;;;;6.40;3.83;;;18.10;58.40;;;;;;5075811;28;20211;-77
2023/05/27 02:13:09;;;;;;;6.23;3.97;;;18.10;58.40;;;;;;5075750;28;20534;-76
2023/05/27 02:15:35;;;;;;;7.67;3.83;;;18.10;58.10;;;;;;5075976;28;20570;-76
2023/05/27 02:18:04;;;;;;;7.97;3.90;;;18.10;58.00;;;;;;5075039;28;20197;-76
2023/05/27 02:20:31;;;;;;;8.87;3.60;;;18.10;58.00;;;;;;5057880;28;20970;-77
2023/05/27 02:22:58;;;;;;;8.23;3.87;;;18.10;57.90;;;;;;5074671;28;20697;-77
2023/05/27 02:25:25;;;;;;;8.37;3.60;;;18.10;57.80;;;;;;5075644;28;20478;-75
2023/05/27 02:27:52;;;;;;;8.53;3.47;;;18.10;58.00;;;;;;5074967;28;20229;-78
2023/05/27 02:30:22;;;;;;;6.73;3.60;;;18.00;57.90;;;;;;5075055;28;20951;-77
2023/05/27 02:32:49;;;;;;;8.73;4.03;;;18.00;58.00;;;;;;5075160;28;20534;-75
2023/05/27 02:35:16;;;;;;;5.07;3.20;;;18.00;58.00;;;;;;5075265;28;20478;-75
2023/05/27 02:37:43;;;;;;;7.87;3.50;;;18.00;58.00;;;;;;5056654;28;20443;-76
2023/05/27 02:40:10;;;;;;;6.33;3.00;;;18.00;57.80;;;;;;5075148;28;20467;-75
2023/05/27 02:42:37;;;;;;;7.27;3.50;;;18.00;57.70;;;;;;5023335;28;20209;-78
2023/05/27 02:45:05;;;;;;;10.73;3.37;;;17.90;57.70;;;;;;5056162;28;20963;-76
2023/05/27 02:47:35;;;;;;;7.87;3.83;;;17.90;57.80;;;;;;5075072;28;20487;-77
2023/05/27 02:50:02;;;;;;;9.20;4.03;;;17.90;57.70;;;;;;5074576;28;21101;-78
2023/05/27 02:52:29;;;;;;;8.57;4.13;;;17.90;57.50;;;;;;5074354;28;21069;-78
2023/05/27 02:54:55;;;;;;;8.53;3.67;;;17.90;57.50;;;;;;5074740;28;20451;-79
2023/05/27 02:57:22;;;;;;;8.03;3.90;;;17.90;57.60;;;;;;5074612;28;20451;-76
2023/05/27 02:59:49;;;;;;;9.57;3.83;;;17.90;57.70;;;;;;5074430;28;20447;-77
2023/05/27 03:02:16;;;;;;;10.63;3.10;;;17.90;57.70;;;;;;5074748;28;20455;-78
2023/05/27 03:04:45;;;;;;;10.23;3.50;;;17.90;57.60;;;;;;5074760;28;20501;-77
2023/05/27 03:07:12;;;;;;;9.90;3.33;;;17.90;57.60;;;;;;5074224;28;20489;-78
2023/05/27 03:09:39;;;;;;;7.00;3.67;;;17.80;57.30;;;;;;5074018;28;20479;-75
2023/05/27 03:12:06;;;;;;;6.60;3.80;;;17.90;57.30;;;;;;5074522;28;20457;-78
2023/05/27 03:14:33;;;;;;;8.13;3.43;;;17.90;57.50;;;;;;5074258;28;20539;-79
2023/05/27 03:17:00;;;;;;;8.63;3.87;;;17.80;57.20;;;;;;5074303;28;20450;-79
2023/05/27 03:19:27;;;;;;;7.13;4.00;;;17.90;57.20;;;;;;5073977;28;20450;-77
2023/05/27 03:21:55;;;;;;;7.83;3.90;;;17.90;57.10;;;;;;5073560;28;20481;-78
2023/05/27 03:24:23;;;;;;;7.60;3.20;;;17.90;57.30;;;;;;5074593;28;20478;-76
2023/05/27 03:26:50;;;;;;;7.30;3.40;;;17.90;57.30;;;;;;5073977;28;20317;-77
2023/05/27 03:29:17;;;;;;;10.30;4.13;;;17.90;57.30;;;;;;5073984;28;20982;-77
2023/05/27 03:31:44;;;;;;;6.63;3.23;;;17.90;57.30;;;;;;5073943;28;20449;-76
2023/05/27 03:34:11;;;;;;;10.30;3.90;;;17.80;57.20;;;;;;5074064;28;20482;-79
2023/05/27 03:36:38;;;;;;;9.73;3.87;;;17.90;57.20;;;;;;5073554;28;20509;-79
2023/05/27 03:39:06;;;;;;;7.03;3.10;;;17.80;57.30;;;;;;5073636;28;20475;-79
2023/05/27 03:41:33;;;;;;;6.90;3.50;;;17.80;57.30;;;;;;5073789;28;20456;-78
2023/05/27 03:44:00;;;;;;;8.77;3.90;;;17.80;57.40;;;;;;5073698;28;20456;-78
2023/05/27 03:46:27;;;;;;;10.03;3.73;;;17.80;57.50;;;;;;5073548;28;20991;-78
2023/05/27 03:48:54;;;;;;;8.43;4.00;;;17.80;57.60;;;;;;5073833;28;20543;-77
2023/05/27 03:51:22;;;;;;;6.77;3.73;;;17.70;57.70;;;;;;5073466;28;20481;-79
2023/05/27 03:53:48;;;;;;;6.07;3.53;;;17.70;57.70;;;;;;5056259;28;20842;-77
2023/05/27 03:56:17;;;;;;;6.60;3.47;;;17.70;57.70;;;;;;5073395;28;20466;-76
2023/05/27 03:58:44;;;;;;;6.07;3.97;;;17.70;57.80;;;;;;5022170;28;20872;-76
2023/05/27 04:01:11;;;;;;;9.20;3.83;;;17.60;57.80;;;;;;5073613;28;20881;-78
2023/05/27 04:03:39;;;;;;;7.80;3.50;;;17.70;57.80;;;;;;5073423;28;20474;-78
2023/05/27 04:06:06;;;;;;;7.57;3.50;;;17.70;57.80;;;;;;5073406;28;20447;-79
2023/05/27 04:08:37;;;;;;;7.40;3.43;;;17.60;57.90;;;;;;5073459;28;20447;-79
2023/05/27 04:11:04;;;;;;;6.40;3.77;;;17.70;57.90;;;;;;5073805;28;20973;-75
2023/05/27 04:13:32;;;;;;;8.00;3.53;;;17.60;57.90;;;;;;5073245;28;20452;-79
2023/05/27 04:15:59;;;;;;;9.13;3.80;;;17.60;57.90;;;;;;5073558;28;20786;-79
2023/05/27 04:18:26;;;;;;;10.43;4.00;;;17.60;57.90;;;;;;5055716;28;20451;-77
2023/05/27 04:20:53;;;;;;;7.47;3.63;;;17.70;57.90;;;;;;5055253;28;20505;-76
2023/05/27 04:23:20;;;;;;;9.60;4.53;;;17.60;57.90;;;;;;5055801;28;20535;-77
2023/05/27 04:25:48;;;;;;;14.03;4.73;;;17.70;58.40;;;;;;5073197;28;20489;-77
2023/05/27 04:28:16;;;;;;;14.77;3.80;;;17.60;58.70;;;;;;5073127;28;20491;-79
2023/05/27 04:30:47;;;;;;;11.10;4.13;;;17.70;59.00;;;;;;5073378;28;20521;-77
2023/05/27 04:33:14;;;;;;;11.10;4.20;;;17.70;59.30;;;;;;5073106;28;20851;-79
2023/05/27 04:35:43;;;;;;;9.10;4.03;;;17.70;59.30;;;;;;5073280;28;20451;-80
2023/05/27 04:38:15;;;;;;;10.83;3.50;;;17.70;59.40;;;;;;5073129;28;20487;-79
2023/05/27 04:40:44;;;;;;;9.60;3.93;;;17.70;59.40;;;;;;5023625;28;20508;-78
2023/05/27 04:43:14;;;;;;;9.57;3.90;;;17.70;59.60;;;;;;5072458;28;20981;-79
2023/05/27 04:45:41;;;;;;;6.73;3.73;;;17.70;59.60;;;;;;5072925;28;20470;-77
2023/05/27 04:48:10;;;;;;;7.87;4.00;;;17.80;60.40;;;;;;5071872;28;20536;-78
2023/05/27 04:50:37;;;;;;;7.57;3.23;;;17.80;59.80;;;;;;5020811;28;20970;-79
2023/05/27 04:53:05;;;;;;;12.83;4.40;;;17.80;59.70;;;;;;5072773;28;20455;-78
2023/05/27 04:55:32;;;;;;;24.10;6.47;;;17.80;59.80;;;;;;5054222;28;20454;-78
2023/05/27 04:58:02;;;;;;;12.47;5.00;;;17.80;60.90;;;;;;5072917;28;20439;-77
2023/05/27 05:00:38;;;;;;;15.80;5.43;;;17.80;60.40;;;;;;5072861;28;20967;-79
2023/05/27 05:03:07;;;;;;;13.03;5.17;;;17.90;60.80;;;;;;5072669;28;21207;-79
2023/05/27 05:05:35;;;;;;;13.43;4.43;;;17.90;60.00;;;;;;5072670;28;20213;-78
2023/05/27 05:08:02;;;;;;;10.80;4.03;;;17.90;59.30;;;;;;5072553;28;20532;-79
2023/05/27 05:10:30;;;;;;;12.27;3.87;;;17.90;59.10;;;;;;5076912;28;20522;-79
2023/05/27 05:12:57;;;;;;;7.83;3.10;;;18.00;59.10;;;;;;5076494;28;20453;-79
2023/05/27 05:15:24;;;;;;;9.87;3.50;;;18.00;58.80;;;;;;5076492;28;20483;-79
2023/05/27 05:17:51;;;;;;;5.70;3.50;;;18.10;59.00;;;;;;5059148;28;20453;-77
2023/05/27 05:20:18;;;;;;;7.00;3.20;;;18.10;58.60;;;;;;5076468;28;20562;-79
2023/05/27 05:22:46;;;;;;;9.10;3.47;;;18.20;58.60;;;;;;5076238;28;20450;-79
2023/05/27 05:25:13;;;;;;;8.00;3.10;;;18.20;58.50;;;;;;5076145;28;20229;-79
2023/05/27 05:27:40;;;;;;;6.43;3.20;;;18.30;58.30;;;;;;5075590;28;20831;-78
2023/05/27 05:30:08;;;;;;;6.10;3.07;;;18.30;58.00;;;;;;5075787;28;20955;-79
2023/05/27 05:32:35;;;;;;;8.10;3.17;;;18.40;57.80;;;;;;5075996;28;20997;-79
2023/05/27 05:35:01;;;;;;;8.40;3.20;;;18.40;57.80;;;;;;5076152;28;20949;-79
2023/05/27 05:37:29;;;;;;;9.30;3.20;;;18.50;57.60;;;;;;5024408;28;20929;-79
2023/05/27 05:39:57;;;;;;;8.33;3.50;;;18.50;58.20;;;;;;5076263;28;20209;-79
2023/05/27 05:42:24;;;;;;;6.43;3.13;;;18.60;58.00;;;;;;5076278;28;20461;-79
2023/05/27 05:44:52;;;;;;;6.27;2.80;;;18.60;57.60;;;;;;5075561;28;20237;-79
2023/05/27 05:47:19;;;;;;;6.67;2.93;;;18.70;57.20;;;;;;5076161;28;20486;-79
2023/05/27 05:49:46;;;;;;;9.63;3.87;;;18.80;56.60;;;;;;5023842;28;20221;-79
2023/05/27 05:52:13;;;;;;;7.23;3.10;;;18.80;57.00;;;;;;5075674;28;20458;-79
2023/05/27 05:54:41;;;;;;;9.33;3.17;;;18.90;56.60;;;;;;5075989;28;20205;-79
2023/05/27 05:57:09;;;;;;;8.20;3.23;;;18.90;56.80;;;;;;5075684;28;20447;-80
2023/05/27 05:59:36;;;;;;;7.83;3.40;;;19.00;56.40;;;;;;5074561;28;20213;-81
2023/05/27 06:02:03;;;;;;;7.27;3.07;;;19.00;56.70;;;;;;5074509;28;20237;-79
2023/05/27 06:04:30;;;;;;;5.20;2.70;;;19.10;56.30;;;;;;5074567;28;20205;-78
2023/05/27 06:06:57;;;;;;;9.53;3.90;;;19.10;56.10;;;;;;5075063;28;20225;-79
2023/05/27 06:09:24;;;;;;;9.57;3.57;;;19.20;55.60;;;;;;5084914;28;20269;-78
2023/05/27 06:11:52;;;;;;;8.07;3.20;;;19.20;55.50;;;;;;5084514;28;20462;-78
2023/05/27 06:14:22;;;;;;;7.37;3.50;;;19.20;55.10;;;;;;5084730;28;20244;-77
2023/05/27 06:16:50;;;;;;;7.80;3.07;;;19.30;55.30;;;;;;5082632;28;20483;-77
2023/05/27 06:19:17;;;;;;;7.33;3.73;;;19.40;55.30;;;;;;5080422;28;20243;-77
2023/05/27 06:21:44;;;;;;;8.00;3.43;;;19.40;55.20;;;;;;5077242;28;20671;-78
2023/05/27 06:24:11;;;;;;;7.27;3.00;;;19.50;55.30;;;;;;5074348;28;20465;-79
2023/05/27 06:26:37;;;;;;;8.20;3.60;;;19.60;55.80;;;;;;5055204;28;20239;-79
2023/05/27 06:29:05;;;;;;;10.07;3.57;;;19.70;55.20;;;;;;5073769;28;20493;-80
2023/05/27 06:31:33;;;;;;;7.33;3.20;;;19.70;54.50;;;;;;5075479;28;20235;-79
2023/05/27 06:34:00;;;;;;;9.37;2.90;;;19.80;54.30;;;;;;5074947;28;20212;-79
2023/05/27 06:36:27;;;;;;;6.37;3.50;;;19.80;54.30;;;;;;5023221;28;20288;-79
2023/05/27 06:38:54;;;;;;;6.53;3.13;;;19.90;54.30;;;;;;5075071;28;20201;-79
2023/05/27 06:41:21;;;;;;;8.80;3.47;;;19.90;54.10;;;;;;5075376;28;20233;-80
2023/05/27 06:43:48;;;;;;;8.67;2.90;;;20.00;53.60;;;;;;5074563;28;20311;-79
2023/05/27 06:46:15;;;;;;;11.20;3.47;;;20.00;53.90;;;;;;5074682;28;20213;-78
2023/05/27 06:48:43;;;;;;;9.23;4.20;;;20.10;53.70;;;;;;5074420;28;20235;-79
2023/05/27 06:51:10;;;;;;;11.80;3.40;;;20.10;53.40;;;;;;5056860;28;20214;-80
2023/05/27 06:53:37;;;;;;;8.10;3.10;;;20.20;53.40;;;;;;5074764;28;20263;-79
2023/05/27 06:56:04;;;;;;;8.57;3.17;;;20.20;53.40;;;;;;5074643;28;20312;-80
2023/05/27 06:58:31;;;;;;;8.60;3.73;;;20.30;53.00;;;;;;5056840;28;20212;-78
2023/05/27 07:00:58;;;;;;;11.47;3.53;;;20.30;52.70;;;;;;5074754;28;20233;-80
2023/05/27 07:03:25;;;;;;;7.80;3.73;;;20.40;52.80;;;;;;5056587;28;20213;-78
2023/05/27 07:05:54;;;;;;;8.47;2.97;;;20.40;52.30;;;;;;5074722;28;20229;-78
2023/05/27 07:08:21;;;;;;;6.93;3.20;;;20.50;52.30;;;;;;5074327;28;20225;-76
2023/05/27 07:10:48;;;;;;;8.17;3.43;;;20.50;53.10;;;;;;5074924;28;20205;-79
2023/05/27 07:13:15;;;;;;;6.33;3.03;;;20.60;53.20;;;;;;5074195;28;20631;-79
2023/05/27 07:15:42;;;;;;;9.47;3.83;;;20.70;53.20;;;;;;5074524;28;20212;-78
2023/05/27 07:18:09;;;;;;;13.47;3.87;;;20.80;52.70;;;;;;5074055;28;20296;-80
2023/05/27 07:20:36;;;;;;;6.37;3.10;;;20.80;52.60;;;;;;5056542;28;20719;-77
2023/05/27 07:23:05;;;;;;;7.37;2.97;;;20.90;52.20;;;;;;5074558;28;20231;-79
2023/05/27 07:25:32;;;;;;;9.03;3.17;;;21.00;52.10;;;;;;5073987;28;20229;-80
2023/05/27 07:27:59;;;;;;;7.90;3.63;;;21.10;52.50;;;;;;5074006;28;20235;-79
2023/05/27 07:30:27;;;;;;;5.67;2.80;;;21.20;52.70;;;;;;5074277;28;20320;-78
2023/05/27 07:32:54;;;;;;;6.50;3.50;;;21.20;52.30;;;;;;5073035;28;20288;-79
2023/05/27 07:35:21;;;;;;;9.17;3.77;;;21.30;52.60;;;;;;5074321;28;20205;-79
2023/05/27 07:37:48;;;;;;;7.33;3.17;;;21.40;52.20;;;;;;5073911;28;20236;-79
2023/05/27 07:40:17;;;;;;;11.77;3.67;;;21.50;52.00;;;;;;5073716;28;20687;-79
2023/05/27 07:42:43;;;;;;;6.47;3.53;;;21.50;52.00;;;;;;5073618;28;20233;-79
2023/05/27 07:45:11;;;;;;;7.07;2.97;;;21.60;51.40;;;;;;5073743;28;20783;-79
2023/05/27 07:47:38;;;;;;;10.17;3.60;;;21.60;51.00;;;;;;5073804;28;20562;-80
2023/05/27 07:50:06;;;;;;;8.87;3.17;;;21.80;51.60;;;;;;5073834;28;20207;-79
2023/05/27 07:52:33;;;;;;;6.73;3.57;;;21.80;51.40;;;;;;5073568;28;20291;-78
2023/05/27 07:55:00;;;;;;;4.83;3.20;;;21.90;51.80;;;;;;5073191;28;20233;-79
2023/05/27 07:57:28;;;;;;;6.83;3.67;;;21.90;51.40;;;;;;5056028;28;20208;-78
2023/05/27 07:59:55;;;;;;;5.43;3.07;;;22.10;51.20;;;;;;5073410;28;20796;-81
2023/05/27 08:02:22;;;;;;;7.10;3.50;;;22.20;51.30;;;;;;5073469;28;20267;-80
2023/05/27 08:04:49;;;;;;;6.97;3.50;;;22.20;50.90;;;;;;5073431;28;20668;-80
2023/05/27 08:07:16;;;;;;;6.10;3.37;;;22.30;50.90;;;;;;5073558;28;20205;-79
2023/05/27 08:09:43;;;;;;;7.47;3.30;;;22.40;51.10;;;;;;5073054;28;20636;-79
2023/05/27 08:12:10;;;;;;;8.63;3.47;;;22.50;50.90;;;;;;5073506;28;20331;-79
2023/05/27 08:14:39;;;;;;;7.67;3.63;;;22.60;50.60;;;;;;5073561;28;20205;-78
2023/05/27 08:17:06;;;;;;;8.63;3.90;;;22.60;51.20;;;;;;5072947;28;20212;-79
2023/05/27 08:19:33;;;;;;;4.93;2.70;;;22.70;50.90;;;;;;5073248;28;20201;-79
2023/05/27 08:22:01;;;;;;;8.33;3.93;;;22.80;50.40;;;;;;5073508;28;20292;-78
2023/05/27 08:24:30;;;;;;;8.43;3.90;;;22.80;50.60;;;;;;5072844;28;20713;-78
2023/05/27 08:26:58;;;;;;;7.87;3.43;;;22.90;50.10;;;;;;5073338;28;20232;-76
2023/05/27 08:29:27;;;;;;;11.03;3.77;;;23.00;50.00;;;;;;5073297;28;20232;-80
2023/05/27 08:31:55;;;;;;;6.23;3.60;;;23.00;50.10;;;;;;5073244;28;20229;-78
2023/05/27 08:34:22;;;;;;;6.17;3.60;;;23.10;49.60;;;;;;5072973;28;20297;-78
2023/05/27 08:36:49;;;;;;;8.77;3.40;;;23.20;49.70;;;;;;5073505;28;20211;-79
2023/05/27 08:39:16;;;;;;;10.23;3.80;;;23.20;49.80;;;;;;5072843;28;20204;-81
2023/05/27 08:41:43;;;;;;;9.73;3.90;;;23.20;48.80;;;;;;5072999;28;20324;-80
2023/05/27 08:44:10;;;;;;;8.67;4.00;;;23.30;49.20;;;;;;5074855;28;20300;-81
2023/05/27 08:46:37;;;;;;;8.73;3.90;;;23.40;50.30;;;;;;5077354;28;20228;-80
2023/05/27 08:49:07;;;;;;;7.70;4.23;;;23.50;49.90;;;;;;5076864;28;20216;-78
2023/05/27 08:51:35;;;;;;;7.43;3.83;;;23.50;49.20;;;;;;5077016;28;20205;-79
2023/05/27 08:54:03;;;;;;;8.13;3.53;;;23.60;49.10;;;;;;5076736;28;20708;-81
2023/05/27 08:56:32;;;;;;;9.67;4.03;;;23.70;49.40;;;;;;5076972;28;20209;-79
2023/05/27 08:59:00;;;;;;;9.50;3.30;;;23.80;49.40;;;;;;5076937;28;20312;-79
2023/05/27 09:01:28;;;;;;;9.17;3.43;;;23.80;48.90;;;;;;5077095;28;20289;-80
2023/05/27 09:03:55;;;;;;;9.87;3.90;;;23.80;49.00;;;;;;5077008;28;20208;-80
2023/05/27 09:06:24;;;;;;;6.50;3.50;;;23.90;49.40;;;;;;5058919;28;20296;-81
2023/05/27 09:08:51;;;;;;;11.00;3.30;;;24.00;49.20;;;;;;5024904;28;20642;-76
2023/05/27 09:11:27;;;;;;;8.87;3.73;;;24.10;49.00;;;;;;5076665;28;20229;-78
2023/05/27 09:13:55;;;;;;;6.80;3.90;;;24.20;49.30;;;;;;5076517;28;20638;-79
2023/05/27 09:16:23;;;;;;;8.13;3.43;;;24.30;48.80;;;;;;5076256;28;20569;-80
2023/05/27 09:18:50;;;;;;;10.07;4.23;;;24.30;48.50;;;;;;5076456;28;20295;-79
2023/05/27 09:21:17;;;;;;;8.10;3.73;;;24.40;49.00;;;;;;5058805;28;20208;-78
2023/05/27 09:23:46;;;;;;;7.03;3.37;;;24.50;48.50;;;;;;5058897;28;20595;-80
2023/05/27 09:26:14;;;;;;;6.23;3.53;;;24.60;48.50;;;;;;5076191;28;20637;-78
2023/05/27 09:28:41;;;;;;;6.63;3.73;;;24.70;48.70;;;;;;5076164;28;20239;-77
2023/05/27 09:31:09;;;;;;;6.77;3.60;;;24.80;49.20;;;;;;5058567;28;20215;-79
2023/05/27 09:33:39;;;;;;;8.30;3.93;;;24.90;48.80;;;;;;5076246;28;20584;-77
2023/05/27 09:36:08;;;;;;;8.20;4.00;;;25.00;48.90;;;;;;5076587;28;20280;-80
2023/05/27 09:38:36;;;;;;;9.23;3.60;;;25.00;48.60;;;;;;5076181;28;20201;-78
2023/05/27 09:41:05;;;;;;;8.53;3.40;;;25.10;48.10;;;;;;5076080;28;20316;-78
2023/05/27 09:43:32;;;;;;;11.13;3.73;;;25.10;48.20;;;;;;5076055;28;20209;-79
2023/05/27 09:46:01;;;;;;;6.10;3.67;;;25.20;47.90;;;;;;5075737;28;20331;-79
2023/05/27 09:48:31;;;;;;;8.83;3.60;;;25.20;48.20;;;;;;5075957;28;20228;-79
2023/05/27 09:50:58;;;;;;;7.20;3.93;;;25.30;48.50;;;;;;5075537;28;20209;-79
2023/05/27 09:53:26;;;;;;;7.90;3.80;;;25.40;48.40;;;;;;5076055;28;20193;-77
2023/05/27 09:55:54;;;;;;;5.07;3.50;;;25.50;48.30;;;;;;5075898;28;20295;-77
2023/05/27 09:58:24;;;;;;;9.00;3.90;;;25.60;47.80;;;;;;5058216;28;20264;-77
2023/05/27 10:00:52;;;;;;;8.13;3.83;;;25.70;47.10;;;;;;5075950;28;20204;-79
2023/05/27 10:03:24;;;;;;;9.20;4.00;;;25.70;48.00;;;;;;5076021;28;20236;-77
2023/05/27 10:05:52;;;;;;;7.60;3.73;;;25.80;47.90;;;;;;5075719;28;20215;-80
2023/05/27 10:08:20;;;;;;;6.83;3.70;;;25.90;47.40;;;;;;5075541;28;20225;-79
2023/05/27 10:10:49;;;;;;;9.57;3.90;;;26.00;47.20;;;;;;5075598;28;20288;-75
2023/05/27 10:13:17;;;;;;;9.83;4.00;;;26.00;47.70;;;;;;5075747;28;20205;-81
2023/05/27 10:15:50;;;;;;;9.13;3.77;;;26.10;47.10;;;;;;5075321;28;20778;-78
2023/05/27 10:18:24;;;;;;;8.57;3.60;;;26.20;47.60;;;;;;5075743;28;20182;-79
2023/05/27 10:20:52;;;;;;;7.80;3.53;;;26.20;47.50;;;;;;5075358;28;20232;-79
2023/05/27 10:23:21;;;;;;;7.40;3.60;;;26.30;48.20;;;;;;5057720;28;20212;-79
2023/05/27 10:25:49;;;;;;;7.50;3.60;;;26.40;47.60;;;;;;5075057;28;20312;-78
2023/05/27 10:28:27;;;;;;;6.60;4.13;;;26.50;47.60;;;;;;5057568;28;20681;-77
2023/05/27 10:31:06;;;;;;;8.20;4.20;;;26.60;47.60;;;;;;5075051;28;20296;-78
2023/05/27 10:33:36;;;;;;;9.07;4.10;;;26.70;47.70;;;;;;5075640;28;20252;-79
2023/05/27 10:36:08;;;;;;;7.23;4.50;;;26.80;47.30;;;;;;5075216;28;20290;-76
2023/05/27 10:38:35;;;;;;;9.93;4.30;;;26.80;46.50;;;;;;5075231;28;20265;-76
2023/05/27 10:41:03;;;;;;;8.63;4.00;;;26.80;46.70;;;;;;5074751;28;20212;-79
2023/05/27 10:43:31;;;;;;;7.07;4.07;;;26.90;46.90;;;;;;5074873;28;20216;-77
2023/05/27 10:46:17;;;;;;;8.70;4.00;;;27.10;47.60;;;;;;5074923;28;20307;-79
2023/05/27 10:48:45;;;;;;;7.90;4.40;;;27.10;47.70;;;;;;5056302;28;20231;-77
2023/05/27 10:51:12;;;;;;;7.27;3.90;;;27.30;46.90;;;;;;5074622;28;20322;-79
2023/05/27 10:53:39;;;;;;;7.73;3.83;;;27.30;46.50;;;;;;5074755;28;20209;-79
2023/05/27 10:56:08;;;;;;;8.67;3.97;;;27.30;46.90;;;;;;5074829;28;20317;-76
2023/05/27 10:58:36;;;;;;;9.23;4.30;;;27.40;46.40;;;;;;5074355;28;20183;-79
2023/05/27 11:01:10;;;;;;;10.50;4.10;;;27.40;46.00;;;;;;5074670;28;20314;-78
2023/05/27 11:03:44;;;;;;;7.40;3.93;;;27.50;46.10;;;;;;5074742;28;20195;-79
2023/05/27 11:06:12;;;;;;;6.60;3.77;;;27.50;45.30;;;;;;5073913;28;20210;-79
2023/05/27 11:08:40;;;;;;;8.70;4.57;;;27.60;46.30;;;;;;5074256;28;20632;-78
2023/05/27 11:11:08;;;;;;;8.83;4.23;;;27.60;45.40;;;;;;5074662;28;20570;-78
2023/05/27 11:13:36;;;;;;;6.20;3.40;;;27.70;45.60;;;;;;5074075;28;20234;-76
2023/05/27 11:16:05;;;;;;;7.40;4.13;;;27.80;45.80;;;;;;5056536;28;20214;-77
2023/05/27 11:18:38;;;;;;;8.70;3.93;;;27.80;45.70;;;;;;5073739;28;20213;-77
2023/05/27 11:21:05;;;;;;;7.00;4.00;;;27.90;45.60;;;;;;5074146;28;20206;-77
2023/05/27 11:23:37;;;;;;;5.73;3.70;;;28.00;45.30;;;;;;5074213;28;20301;-78
2023/05/27 11:26:04;;;;;;;7.87;3.97;;;28.00;45.30;;;;;;5056361;28;20230;-78
2023/05/27 11:28:31;;;;;;;7.03;4.13;;;28.10;45.50;;;;;;5074283;28;20215;-78
2023/05/27 11:31:02;;;;;;;5.77;3.53;;;28.10;45.30;;;;;;5074091;28;20290;-78
2023/05/27 11:33:33;;;;;;;8.30;4.03;;;28.10;44.70;;;;;;5074174;28;20189;-76
2023/05/27 11:36:13;;;;;;;8.23;4.40;;;28.10;44.20;;;;;;5056681;28;20293;-79
2023/05/27 11:38:57;;;;;;;6.07;3.70;;;28.20;44.20;;;;;;5055863;28;20207;-80
2023/05/27 11:41:26;;;;;;;9.23;4.27;;;28.20;44.50;;;;;;5074224;28;20280;-79
2023/05/27 11:43:57;;;;;;;9.07;4.40;;;28.30;44.80;;;;;;5073629;28;20597;-78
2023/05/27 11:46:24;;;;;;;8.37;4.37;;;28.40;45.00;;;;;;5074263;28;20215;-77
2023/05/27 11:48:52;;;;;;;6.03;3.73;;;28.40;44.90;;;;;;5073282;28;20234;-79
2023/05/27 11:51:29;;;;;;;7.80;4.33;;;28.40;43.80;;;;;;5073903;28;20299;-79
2023/05/27 11:53:58;;;;;;;7.57;4.07;;;28.50;44.80;;;;;;5073640;28;20218;-80
2023/05/27 11:56:25;;;;;;;6.77;4.20;;;28.60;44.00;;;;;;5073304;28;20237;-79
2023/05/27 11:58:52;;;;;;;6.23;4.00;;;28.60;44.50;;;;;;5073681;28;20200;-79
2023/05/27 12:01:19;;;;;;;7.73;4.30;;;28.70;44.40;;;;;;5073425;28;20323;-79
2023/05/27 12:03:48;;;;;;;7.67;3.80;;;28.80;44.30;;;;;;5073509;28;20243;-79
2023/05/27 12:06:15;;;;;;;7.30;4.53;;;28.80;44.20;;;;;;5054376;28;20289;-78
2023/05/27 12:08:44;;;;;;;9.00;4.27;;;28.90;43.90;;;;;;5071850;28;20291;-75
2023/05/27 12:11:10;;;;;;;7.23;4.47;;;29.00;43.80;;;;;;5071367;28;20291;-69
2023/05/27 12:13:37;;;;;;;7.27;4.07;;;29.10;44.10;;;;;;5070983;28;20225;-69
2023/05/27 12:16:04;;;;;;;9.40;4.37;;;29.10;43.90;;;;;;5071663;28;20212;-70
2023/05/27 12:18:32;;;;;;;6.83;3.83;;;29.20;43.30;;;;;;5071953;28;20291;-72
2023/05/27 12:20:58;;;;;;;7.80;4.47;;;29.30;43.40;;;;;;5072032;28;20218;-70
2023/05/27 12:23:25;;;;;;;10.77;4.87;;;29.40;44.00;;;;;;5072090;28;20702;-71
2023/05/27 12:25:54;;;;;;;8.50;4.37;;;29.40;42.70;;;;;;5069615;28;20228;-70
2023/05/27 12:28:20;;;;;;;7.93;4.10;;;29.40;43.30;;;;;;5071288;28;20213;-70
2023/05/27 12:30:48;;;;;;;6.80;3.90;;;29.50;42.10;;;;;;5070655;28;20225;-71
2023/05/27 12:33:14;;;;;;;7.43;4.43;;;29.50;42.40;;;;;;5066105;28;20678;-71
2023/05/27 12:35:41;;;;;;;5.33;3.80;;;29.60;42.10;;;;;;5069772;28;20550;-70
2023/05/27 12:38:08;;;;;;;8.17;4.43;;;29.60;41.40;;;;;;5068589;28;20231;-70
2023/05/27 12:40:35;;;;;;;8.17;4.67;;;29.60;40.70;;;;;;5071343;28;20207;-69
2023/05/27 12:43:03;;;;;;;8.27;4.20;;;29.60;40.70;;;;;;5070136;28;20292;-70
2023/05/27 12:45:34;;;;;;;5.47;3.87;;;29.70;41.00;;;;;;5069885;28;20300;-72
2023/05/27 12:48:04;;;;;;;6.33;4.13;;;29.70;41.30;;;;;;5070581;28;20641;-71
2023/05/27 12:50:31;;;;;;;8.10;4.37;;;29.70;41.50;;;;;;5067316;28;20239;-71